createdAt,value
2023-02-18T00:01:10.105Z,6.77
2023-02-18T00:03:40.716Z,6.67
2023-02-18T00:06:14.801Z,6.58
2023-02-18T00:08:45.603Z,6.49
2023-02-18T00:11:15.156Z,6.41
2023-02-18T00:13:44.697Z,6.36
2023-02-18T00:16:13.635Z,6.30
2023-02-18T00:18:42.605Z,6.27
2023-02-18T00:21:11.429Z,6.24
2023-02-18T00:23:42.951Z,6.20
2023-02-18T00:26:16.619Z,6.14
2023-02-18T00:28:47.924Z,6.12
2023-02-18T00:31:28.087Z,6.06
2023-02-18T00:33:58.718Z,6.03
2023-02-18T00:36:31.364Z,6.03
2023-02-18T00:39:05.011Z,6.04
2023-02-18T00:41:35.849Z,6.04
2023-02-18T00:44:06.399Z,6.03
2023-02-18T00:46:37.015Z,5.99
2023-02-18T00:49:09.892Z,5.94
2023-02-18T00:51:38.917Z,5.95
2023-02-18T00:54:08.399Z,5.95
2023-02-18T00:56:37.257Z,5.92
2023-02-18T00:59:06.262Z,5.91
2023-02-18T01:01:36.001Z,5.88
2023-02-18T01:04:05.616Z,5.86
2023-02-18T01:06:37.850Z,5.82
2023-02-18T01:09:07.150Z,5.76
2023-02-18T01:11:36.187Z,5.73
2023-02-18T01:14:05.388Z,5.72
2023-02-18T01:16:37.089Z,5.71
2023-02-18T01:19:06.179Z,5.75
2023-02-18T01:21:35.293Z,5.77
2023-02-18T01:24:06.760Z,5.79
2023-02-18T01:26:38.089Z,5.78
2023-02-18T01:29:07.113Z,5.78
2023-02-18T01:31:36.451Z,5.80
2023-02-18T01:34:05.370Z,5.78
2023-02-18T01:36:34.811Z,5.79
2023-02-18T01:39:04.886Z,5.79
2023-02-18T01:41:36.964Z,5.78
2023-02-18T01:44:16.958Z,5.77
2023-02-18T01:46:48.707Z,5.75
2023-02-18T01:49:24.071Z,5.76
2023-02-18T01:51:56.222Z,5.75
2023-02-18T01:54:29.937Z,5.73
2023-02-18T01:57:02.830Z,5.71
2023-02-18T01:59:37.223Z,5.70
2023-02-18T02:02:11.358Z,5.72
2023-02-18T02:04:41.601Z,5.74
2023-02-18T02:07:12.711Z,5.74
2023-02-18T02:09:43.104Z,5.74
2023-02-18T02:12:28.126Z,5.74
2023-02-18T02:15:28.873Z,5.71
2023-02-18T02:18:27.197Z,5.68
2023-02-18T02:21:35.998Z,5.67
2023-02-18T02:24:45.770Z,5.64
2023-02-18T02:27:23.387Z,5.63
2023-02-18T02:30:29.591Z,5.62
2023-02-18T02:33:24.763Z,5.61
2023-02-18T02:36:00.027Z,5.59
2023-02-18T02:38:37.680Z,5.57
2023-02-18T02:41:19.552Z,5.55
2023-02-18T02:44:06.815Z,5.54
2023-02-18T02:46:41.281Z,5.50
2023-02-18T02:49:19.625Z,5.49
2023-02-18T02:51:57.039Z,5.47
2023-02-18T02:54:28.290Z,5.45
2023-02-18T02:57:29.806Z,5.40
2023-02-18T03:00:32.516Z,5.38
2023-02-18T03:03:30.420Z,5.36
2023-02-18T03:06:24.619Z,5.32
2023-02-18T03:09:03.404Z,5.31
2023-02-18T03:11:41.336Z,5.28
2023-02-18T03:14:19.795Z,5.25
2023-02-18T03:17:13.176Z,5.23
2023-02-18T03:19:47.825Z,5.21
2023-02-18T03:22:27.490Z,5.18
2023-02-18T03:25:00.346Z,5.15
2023-02-18T03:27:33.635Z,5.12
2023-02-18T03:30:07.976Z,5.08
2023-02-18T03:32:38.295Z,5.04
2023-02-18T03:35:12.303Z,5.01
2023-02-18T03:37:43.138Z,4.98
2023-02-18T03:40:12.112Z,4.96
2023-02-18T03:42:40.390Z,4.91
2023-02-18T03:45:08.823Z,4.87
2023-02-18T03:47:38.240Z,4.85
2023-02-18T03:50:09.101Z,4.82
2023-02-18T03:52:37.904Z,4.81
2023-02-18T03:55:08.868Z,4.79
2023-02-18T03:57:40.636Z,4.78
2023-02-18T04:00:11.440Z,4.77
2023-02-18T04:02:42.584Z,4.74
2023-02-18T04:05:11.376Z,4.73
2023-02-18T04:07:39.613Z,4.71
2023-02-18T04:10:09.527Z,4.73
2023-02-18T04:12:41.997Z,4.72
2023-02-18T04:15:10.200Z,4.71
2023-02-18T04:17:38.353Z,4.70
2023-02-18T04:20:07.960Z,4.70
2023-02-18T04:22:36.027Z,4.69
2023-02-18T04:25:05.080Z,4.67
2023-02-18T04:27:33.478Z,4.67
2023-02-18T04:30:01.866Z,4.67
2023-02-18T04:32:29.863Z,4.66
2023-02-18T04:34:58.152Z,4.64
2023-02-18T04:37:26.305Z,4.60
2023-02-18T04:39:54.959Z,4.59
2023-02-18T04:42:23.577Z,4.57
2023-02-18T04:44:57.626Z,4.57
2023-02-18T04:47:32.071Z,4.55
2023-02-18T04:50:00.665Z,4.54
2023-02-18T04:52:30.160Z,4.54
2023-02-18T04:54:58.835Z,4.52
2023-02-18T04:57:26.935Z,4.52
2023-02-18T04:59:57.304Z,4.49
2023-02-18T05:02:25.510Z,4.46
2023-02-18T05:04:56.377Z,4.43
2023-02-18T05:07:24.598Z,4.39
2023-02-18T05:09:53.675Z,4.37
2023-02-18T05:12:21.798Z,4.36
2023-02-18T05:14:52.874Z,4.36
2023-02-18T05:17:20.917Z,4.35
2023-02-18T05:19:52.996Z,4.34
2023-02-18T05:22:21.122Z,4.35
2023-02-18T05:24:51.066Z,4.35
2023-02-18T05:27:19.342Z,4.36
2023-02-18T05:29:47.620Z,4.37
2023-02-18T05:32:15.937Z,4.38
2023-02-18T05:34:46.690Z,4.38
2023-02-18T05:37:14.778Z,4.37
2023-02-18T05:39:42.610Z,4.38
2023-02-18T05:42:10.646Z,4.37
2023-02-18T05:44:38.699Z,4.39
2023-02-18T05:47:11.413Z,4.40
2023-02-18T05:49:40.652Z,4.40
2023-02-18T05:52:09.773Z,4.41
2023-02-18T05:54:38.068Z,4.41
2023-02-18T05:57:06.137Z,4.41
2023-02-18T05:59:39.037Z,4.42
2023-02-18T06:02:06.891Z,4.43
2023-02-18T06:04:34.948Z,4.43
2023-02-18T06:07:03.046Z,4.45
2023-02-18T06:09:31.054Z,4.46
2023-02-18T06:11:59.131Z,4.47
2023-02-18T06:14:28.665Z,4.48
2023-02-18T06:16:56.723Z,4.48
2023-02-18T06:19:26.142Z,4.50
2023-02-18T06:21:55.676Z,4.52
2023-02-18T06:24:23.637Z,4.52
2023-02-18T06:26:52.809Z,4.54
2023-02-18T06:29:20.871Z,4.55
2023-02-18T06:31:51.222Z,4.55
2023-02-18T06:34:19.897Z,4.54
2023-02-18T06:36:47.968Z,4.57
2023-02-18T06:39:17.208Z,4.57
2023-02-18T06:41:45.745Z,4.59
2023-02-18T06:44:14.916Z,4.60
2023-02-18T06:46:43.595Z,4.61
2023-02-18T06:49:14.262Z,4.63
2023-02-18T06:51:42.221Z,4.65
2023-02-18T06:54:11.393Z,4.69
2023-02-18T06:56:40.638Z,4.73
2023-02-18T06:59:10.652Z,4.77
2023-02-18T07:01:40.972Z,4.78
2023-02-18T07:04:09.109Z,4.81
2023-02-18T07:06:38.026Z,4.82
2023-02-18T07:09:06.073Z,4.83
2023-02-18T07:11:33.970Z,4.83
2023-02-18T07:14:01.989Z,4.84
2023-02-18T07:16:30.627Z,4.85
2023-02-18T07:18:59.095Z,4.85
2023-02-18T07:21:29.315Z,4.85
2023-02-18T07:23:57.292Z,4.86
2023-02-18T07:26:28.125Z,4.87
2023-02-18T07:28:56.525Z,4.89
2023-02-18T07:31:24.529Z,4.95
2023-02-18T07:33:53.794Z,5.16
2023-02-18T07:36:21.941Z,5.32
2023-02-18T07:38:52.756Z,5.44
2023-02-18T07:41:21.719Z,5.54
2023-02-18T07:43:50.813Z,5.67
2023-02-18T07:46:18.943Z,5.72
2023-02-18T07:48:46.944Z,5.86
2023-02-18T07:51:14.927Z,5.88
2023-02-18T07:53:43.046Z,5.92
2023-02-18T07:56:11.649Z,6.05
2023-02-18T07:58:39.909Z,6.22
2023-02-18T08:01:08.837Z,6.34
2023-02-18T08:03:37.670Z,6.46
2023-02-18T08:06:06.950Z,6.48
2023-02-18T08:08:36.987Z,6.59
2023-02-18T08:11:17.088Z,6.71
2023-02-18T08:13:47.532Z,6.85
2023-02-18T08:16:19.683Z,7.03
2023-02-18T08:18:48.732Z,7.17
2023-02-18T08:21:19.186Z,7.27
2023-02-18T08:23:48.242Z,7.35
2023-02-18T08:26:16.777Z,7.31
2023-02-18T08:28:45.513Z,7.20
2023-02-18T08:31:18.222Z,7.11
2023-02-18T08:33:46.280Z,7.16
2023-02-18T08:36:14.239Z,7.22
2023-02-18T08:38:42.146Z,7.21
2023-02-18T08:41:10.725Z,7.24
2023-02-18T08:43:43.175Z,7.17
2023-02-18T08:46:16.094Z,7.18
2023-02-18T08:48:44.739Z,7.12
2023-02-18T08:51:14.213Z,7.09
2023-02-18T08:53:42.164Z,7.02
2023-02-18T08:56:10.369Z,7.04
2023-02-18T08:58:38.444Z,7.04
2023-02-18T09:01:07.689Z,7.04
2023-02-18T09:03:36.456Z,6.98
2023-02-18T09:06:05.030Z,6.92
2023-02-18T09:08:33.757Z,6.91
2023-02-18T09:11:04.013Z,6.88
2023-02-18T09:13:31.976Z,6.86
2023-02-18T09:16:01.213Z,6.80
2023-02-18T09:18:29.346Z,6.75
2023-02-18T09:20:58.344Z,6.77
2023-02-18T09:23:27.025Z,6.79
2023-02-18T09:25:55.015Z,6.80
2023-02-18T09:28:23.105Z,6.76
2023-02-18T09:30:52.890Z,6.86
2023-02-18T09:33:20.887Z,6.80
2023-02-18T09:35:48.847Z,6.81
2023-02-18T09:38:17.805Z,6.80
2023-02-18T09:40:47.545Z,6.81
2023-02-18T09:43:21.848Z,7.00
2023-02-18T09:45:53.703Z,7.11
2023-02-18T09:48:26.739Z,7.09
2023-02-18T09:50:55.605Z,6.99
2023-02-18T09:53:25.709Z,6.91
2023-02-18T09:55:55.043Z,6.93
2023-02-18T09:58:24.422Z,6.92
2023-02-18T10:00:53.725Z,6.84
2023-02-18T10:03:23.625Z,6.75
2023-02-18T10:05:56.649Z,6.70
2023-02-18T10:08:26.567Z,6.63
2023-02-18T10:10:54.586Z,6.61
2023-02-18T10:13:25.499Z,6.59
2023-02-18T10:15:53.686Z,6.55
2023-02-18T10:18:32.236Z,6.54
2023-02-18T10:21:05.369Z,6.50
2023-02-18T10:23:34.929Z,6.51
2023-02-18T10:26:06.001Z,6.56
2023-02-18T10:28:35.161Z,6.59
2023-02-18T10:31:08.215Z,6.62
2023-02-18T10:33:42.602Z,6.76
2023-02-18T10:36:25.138Z,6.94
2023-02-18T10:39:03.018Z,7.17
2023-02-18T10:41:36.316Z,7.19
2023-02-18T10:44:10.806Z,7.18
2023-02-18T10:46:48.218Z,7.16
2023-02-18T10:49:31.649Z,7.10
2023-02-18T10:52:02.778Z,7.06
2023-02-18T10:54:57.182Z,6.99
2023-02-18T10:57:26.485Z,6.96
2023-02-18T10:59:57.331Z,6.95
2023-02-18T11:02:26.888Z,6.94
2023-02-18T11:04:58.974Z,6.95
2023-02-18T11:07:31.365Z,6.95
2023-02-18T11:10:00.831Z,6.97
2023-02-18T11:12:30.578Z,6.94
2023-02-18T11:15:07.877Z,6.95
2023-02-18T11:17:37.463Z,6.93
2023-02-18T11:20:25.940Z,6.91
2023-02-18T11:22:57.837Z,6.95
2023-02-18T11:25:27.383Z,6.99
2023-02-18T11:27:56.817Z,6.96
2023-02-18T11:30:26.696Z,6.94
2023-02-18T11:32:57.678Z,6.94
2023-02-18T11:35:27.774Z,6.99
2023-02-18T11:37:57.679Z,7.07
2023-02-18T11:40:28.765Z,7.18
2023-02-18T11:43:04.265Z,7.25
2023-02-18T11:45:34.373Z,7.36
2023-02-18T11:48:07.076Z,7.48
2023-02-18T11:50:35.266Z,7.57
2023-02-18T11:53:25.301Z,7.63
2023-02-18T11:55:55.648Z,7.67
2023-02-18T11:58:24.048Z,7.61
2023-02-18T12:00:55.824Z,7.54
2023-02-18T12:03:28.857Z,7.47
2023-02-18T12:06:01.772Z,7.46
2023-02-18T12:08:32.321Z,7.48
2023-02-18T12:11:02.197Z,7.49
2023-02-18T12:13:33.683Z,7.50
2023-02-18T12:16:09.389Z,7.46
2023-02-18T12:18:44.873Z,7.40
2023-02-18T12:21:32.224Z,7.38
2023-02-18T12:24:07.129Z,7.42
2023-02-18T12:26:40.423Z,7.46
2023-02-18T12:29:16.804Z,7.42
2023-02-18T12:31:51.928Z,7.41
2023-02-18T12:34:27.669Z,7.44
2023-02-18T12:37:01.566Z,7.39
2023-02-18T12:39:36.174Z,7.32
2023-02-18T12:42:13.661Z,7.26
2023-02-18T12:44:45.524Z,7.22
2023-02-18T12:47:34.461Z,7.20
2023-02-18T12:50:23.252Z,7.23
2023-02-18T12:53:01.160Z,7.25
2023-02-18T12:55:40.445Z,7.29
2023-02-18T12:58:14.647Z,7.38
2023-02-18T13:00:57.220Z,7.46
2023-02-18T13:03:53.533Z,7.47
2023-02-18T13:06:29.427Z,7.44
2023-02-18T13:09:03.097Z,7.41
2023-02-18T13:11:39.801Z,7.37
2023-02-18T13:14:10.989Z,7.32
2023-02-18T13:16:47.124Z,7.23
2023-02-18T13:19:19.098Z,7.10
2023-02-18T13:21:48.410Z,7.00
2023-02-18T13:24:22.839Z,6.89
2023-02-18T13:26:55.767Z,6.79
2023-02-18T13:29:30.449Z,6.75
2023-02-18T13:32:03.184Z,6.70
2023-02-18T13:34:34.625Z,6.64
2023-02-18T13:37:08.320Z,6.59
2023-02-18T13:39:37.479Z,6.55
2023-02-18T13:42:23.667Z,6.51
2023-02-18T13:45:18.428Z,6.46
2023-02-18T13:47:49.155Z,6.42
2023-02-18T13:50:25.495Z,6.37
2023-02-18T13:53:00.512Z,6.32
2023-02-18T13:55:35.495Z,6.26
2023-02-18T13:58:03.888Z,6.23
2023-02-18T14:00:36.683Z,6.20
2023-02-18T14:03:20.764Z,6.15
2023-02-18T14:05:49.459Z,6.13
2023-02-18T14:08:30.549Z,6.11
2023-02-18T14:11:18.758Z,6.08
2023-02-18T14:13:48.999Z,6.06
2023-02-18T14:16:17.046Z,6.03
2023-02-18T14:18:59.122Z,6.01
2023-02-18T14:21:37.833Z,5.97
2023-02-18T14:24:07.368Z,5.95
2023-02-18T14:26:38.464Z,5.94
2023-02-18T14:29:13.101Z,5.92
2023-02-18T14:31:49.857Z,5.91
2023-02-18T14:34:45.457Z,5.89
2023-02-18T14:37:31.489Z,5.86
2023-02-18T14:40:06.097Z,5.83
2023-02-18T14:42:42.144Z,5.82
2023-02-18T14:45:15.058Z,5.81
2023-02-18T14:47:53.785Z,5.81
2023-02-18T14:50:22.463Z,5.80
2023-02-18T14:52:52.392Z,5.79
2023-02-18T14:55:24.091Z,5.74
2023-02-18T14:57:56.008Z,5.68
2023-02-18T15:00:24.784Z,5.57
2023-02-18T15:02:55.117Z,5.47
2023-02-18T15:05:26.167Z,5.37
2023-02-18T15:07:58.331Z,5.30
2023-02-18T15:10:31.876Z,5.23
2023-02-18T15:13:01.677Z,5.08
2023-02-18T15:15:30.153Z,4.92
2023-02-18T15:17:58.314Z,4.76
2023-02-18T15:20:27.169Z,4.61
2023-02-18T15:22:55.210Z,4.48
2023-02-18T15:25:23.283Z,4.36
2023-02-18T15:27:52.130Z,4.27
2023-02-18T15:30:24.661Z,4.16
2023-02-18T15:32:55.992Z,4.07
2023-02-18T15:35:28.664Z,4.01
2023-02-18T15:37:57.487Z,3.94
2023-02-18T15:40:29.781Z,3.89
2023-02-18T15:42:59.047Z,3.83
2023-02-18T15:45:31.117Z,3.80
2023-02-18T15:47:59.970Z,3.75
2023-02-18T15:50:29.001Z,3.70
2023-02-18T15:52:59.181Z,3.67
2023-02-18T15:55:30.554Z,3.63
2023-02-18T15:58:01.219Z,3.60
2023-02-18T16:00:32.007Z,3.59
2023-02-18T16:03:03.883Z,3.57
2023-02-18T16:05:37.436Z,3.56
2023-02-18T16:08:12.369Z,3.54
2023-02-18T16:10:43.715Z,3.53
2023-02-18T16:13:14.677Z,3.53
2023-02-18T16:15:44.752Z,3.52
2023-02-18T16:18:24.355Z,3.50
2023-02-18T16:20:58.169Z,3.50
2023-02-18T16:23:30.720Z,3.50
2023-02-18T16:26:08.996Z,3.49
2023-02-18T16:28:37.305Z,3.50
2023-02-18T16:31:05.469Z,3.50
2023-02-18T16:33:33.515Z,3.51
2023-02-18T16:36:02.089Z,3.50
2023-02-18T16:38:30.084Z,3.49
2023-02-18T16:40:58.058Z,3.48
2023-02-18T16:43:32.255Z,3.47
2023-02-18T16:46:07.198Z,3.46
2023-02-18T16:48:36.951Z,3.43
2023-02-18T16:51:09.278Z,3.44
2023-02-18T16:53:37.598Z,3.40
2023-02-18T16:56:06.415Z,3.41
2023-02-18T16:58:34.670Z,3.39
2023-02-18T17:01:03.222Z,3.38
2023-02-18T17:03:33.869Z,3.39
2023-02-18T17:06:03.106Z,3.39
2023-02-18T17:08:31.038Z,3.39
2023-02-18T17:10:58.935Z,3.40
2023-02-18T17:13:28.794Z,3.41
2023-02-18T17:16:03.154Z,3.39
2023-02-18T17:18:31.661Z,3.40
2023-02-18T17:20:59.745Z,3.40
2023-02-18T17:23:27.713Z,3.40
2023-02-18T17:25:55.660Z,3.38
2023-02-18T17:28:24.122Z,3.38
2023-02-18T17:30:56.105Z,3.38
2023-02-18T17:33:25.714Z,3.35
2023-02-18T17:35:54.089Z,3.34
2023-02-18T17:38:24.733Z,3.31
2023-02-18T17:40:53.891Z,3.30
2023-02-18T17:43:24.772Z,3.26
2023-02-18T17:45:55.098Z,3.22
2023-02-18T17:48:23.652Z,3.22
2023-02-18T17:50:52.761Z,3.20
2023-02-18T17:53:20.972Z,3.18
2023-02-18T17:55:50.008Z,3.17
2023-02-18T17:58:19.642Z,3.15
2023-02-18T18:00:48.815Z,3.15
2023-02-18T18:03:17.544Z,3.12
2023-02-18T18:05:49.059Z,3.11
2023-02-18T18:08:17.880Z,3.08
2023-02-18T18:10:49.853Z,3.07
2023-02-18T18:13:21.561Z,3.05
2023-02-18T18:15:52.072Z,3.03
2023-02-18T18:18:21.476Z,3.03
2023-02-18T18:20:56.534Z,3.02
2023-02-18T18:23:25.801Z,2.99
2023-02-18T18:25:54.507Z,2.96
2023-02-18T18:28:23.497Z,2.97
2023-02-18T18:30:55.802Z,2.96
2023-02-18T18:33:25.537Z,2.93
2023-02-18T18:35:58.091Z,2.91
2023-02-18T18:38:28.247Z,2.90
2023-02-18T18:40:56.967Z,2.88
2023-02-18T18:43:26.766Z,2.88
2023-02-18T18:45:55.183Z,2.87
2023-02-18T18:48:24.027Z,2.85
2023-02-18T18:50:53.800Z,2.84
2023-02-18T18:53:22.969Z,2.82
2023-02-18T18:55:52.728Z,2.81
2023-02-18T18:58:24.087Z,2.77
2023-02-18T19:00:55.591Z,2.73
2023-02-18T19:03:25.299Z,2.71
2023-02-18T19:05:55.492Z,2.68
2023-02-18T19:08:25.372Z,2.68
2023-02-18T19:10:55.570Z,2.68
2023-02-18T19:13:25.191Z,2.68
2023-02-18T19:16:00.618Z,2.68
2023-02-18T19:18:29.455Z,2.67
2023-02-18T19:20:57.693Z,2.65
2023-02-18T19:23:27.863Z,2.66
2023-02-18T19:25:56.473Z,2.65
2023-02-18T19:28:24.679Z,2.65
2023-02-18T19:30:54.091Z,2.63
2023-02-18T19:33:22.267Z,2.63
2023-02-18T19:35:50.418Z,2.63
2023-02-18T19:38:19.320Z,2.62
2023-02-18T19:40:47.459Z,2.61
2023-02-18T19:43:15.583Z,2.62
2023-02-18T19:45:46.492Z,2.62
2023-02-18T19:48:15.409Z,2.61
2023-02-18T19:50:44.068Z,2.61
2023-02-18T19:53:12.152Z,2.61
2023-02-18T19:55:40.386Z,2.61
2023-02-18T19:58:08.393Z,2.62
2023-02-18T20:00:36.539Z,2.62
2023-02-18T20:03:05.126Z,2.61
2023-02-18T20:05:38.055Z,2.60
2023-02-18T20:08:08.969Z,2.59
2023-02-18T20:10:37.124Z,2.59
2023-02-18T20:13:09.883Z,2.59
2023-02-18T20:15:40.132Z,2.57
2023-02-18T20:18:09.485Z,2.54
2023-02-18T20:20:37.420Z,2.54
2023-02-18T20:23:06.606Z,2.54
2023-02-18T20:25:34.992Z,2.54
2023-02-18T20:28:03.442Z,2.54
2023-02-18T20:30:31.785Z,2.53
2023-02-18T20:32:59.851Z,2.52
2023-02-18T20:35:27.901Z,2.53
2023-02-18T20:37:57.127Z,2.53
2023-02-18T20:40:25.387Z,2.53
2023-02-18T20:42:53.547Z,2.53
2023-02-18T20:45:22.107Z,2.52
2023-02-18T20:47:51.135Z,2.53
2023-02-18T20:50:21.238Z,2.55
2023-02-18T20:52:51.938Z,2.55
2023-02-18T20:55:20.010Z,2.56
2023-02-18T20:57:47.918Z,2.57
2023-02-18T21:00:16.095Z,2.57
2023-02-18T21:02:44.130Z,2.58
2023-02-18T21:05:14.530Z,2.59
2023-02-18T21:07:42.564Z,2.58
2023-02-18T21:10:10.580Z,2.58
2023-02-18T21:12:38.492Z,2.58
2023-02-18T21:15:07.667Z,2.58
2023-02-18T21:17:35.685Z,2.59
2023-02-18T21:20:05.141Z,2.58
2023-02-18T21:22:33.789Z,2.58
2023-02-18T21:25:01.774Z,2.59
2023-02-18T21:27:32.604Z,2.60
2023-02-18T21:30:00.780Z,2.60
2023-02-18T21:32:31.617Z,2.61
2023-02-18T21:35:00.329Z,2.62
2023-02-18T21:37:30.085Z,2.62
2023-02-18T21:39:59.824Z,2.63
2023-02-18T21:42:30.294Z,2.64
2023-02-18T21:44:58.704Z,2.63
2023-02-18T21:47:26.658Z,2.61
2023-02-18T21:49:55.452Z,2.56
2023-02-18T21:52:25.903Z,2.50
2023-02-18T21:54:54.080Z,2.41
2023-02-18T21:57:24.008Z,2.34
2023-02-18T21:59:53.452Z,2.27
2023-02-18T22:02:22.607Z,2.23
2023-02-18T22:04:53.012Z,2.15
2023-02-18T22:07:21.982Z,2.10
2023-02-18T22:09:53.239Z,2.07
2023-02-18T22:12:21.854Z,2.03
2023-02-18T22:14:53.919Z,1.98
2023-02-18T22:17:22.336Z,1.94
2023-02-18T22:19:53.961Z,1.89
2023-02-18T22:22:22.397Z,1.85
2023-02-18T22:24:52.844Z,1.79
2023-02-18T22:27:20.768Z,1.74
2023-02-18T22:29:52.858Z,1.69
2023-02-18T22:32:20.854Z,1.65
2023-02-18T22:34:50.949Z,1.61
2023-02-18T22:37:28.877Z,1.56
2023-02-18T22:39:57.091Z,1.52
2023-02-18T22:42:25.188Z,1.48
2023-02-18T22:44:56.545Z,1.44
2023-02-18T22:47:24.852Z,1.41
2023-02-18T22:49:54.065Z,1.35
2023-02-18T22:52:22.386Z,1.32
2023-02-18T22:54:54.931Z,1.27
2023-02-18T22:57:23.136Z,1.25
2023-02-18T22:59:53.805Z,1.22
2023-02-18T23:02:25.076Z,1.21
2023-02-18T23:04:56.010Z,1.20
2023-02-18T23:07:24.116Z,1.21
2023-02-18T23:09:54.065Z,1.22
2023-02-18T23:12:23.653Z,1.24
2023-02-18T23:14:52.751Z,1.27
2023-02-18T23:17:20.842Z,1.28
2023-02-18T23:19:52.789Z,1.30
2023-02-18T23:22:28.443Z,1.30
2023-02-18T23:24:56.766Z,1.30
2023-02-18T23:27:25.488Z,1.27
2023-02-18T23:29:54.651Z,1.25
2023-02-18T23:32:23.546Z,1.23
2023-02-18T23:34:54.635Z,1.21
2023-02-18T23:37:44.037Z,1.19
2023-02-18T23:40:14.178Z,1.19
2023-02-18T23:42:42.107Z,1.21
2023-02-18T23:45:10.297Z,1.25
2023-02-18T23:47:38.915Z,1.27
2023-02-18T23:50:07.293Z,1.30
2023-02-18T23:52:35.338Z,1.33
2023-02-18T23:55:03.498Z,1.37
2023-02-18T23:57:32.446Z,1.42
